createdAt,value
2022-10-21T00:02:52.637Z,13.1
2022-10-21T00:05:52.637Z,13.1
2022-10-21T00:08:52.689Z,13.1
2022-10-21T00:11:52.639Z,13.1
2022-10-21T00:14:54.877Z,13.1
2022-10-21T00:17:52.636Z,13.1
2022-10-21T00:20:52.635Z,13.1
2022-10-21T00:23:52.642Z,13.1
2022-10-21T00:26:52.643Z,13.1
2022-10-21T00:29:52.654Z,13.1
2022-10-21T00:32:52.658Z,13.1
2022-10-21T00:35:52.649Z,13.1
2022-10-21T00:38:52.663Z,13.1
2022-10-21T00:41:52.646Z,13.1
2022-10-21T00:44:52.659Z,13.1
2022-10-21T00:47:52.654Z,13.1
2022-10-21T00:50:52.650Z,13.1
2022-10-21T00:53:52.645Z,13.1
2022-10-21T00:56:52.682Z,13.1
2022-10-21T00:59:52.658Z,13.1
2022-10-21T01:02:52.665Z,13.1
2022-10-21T01:05:52.666Z,13.1
2022-10-21T01:08:52.716Z,13.1
2022-10-21T01:11:52.653Z,13.1
2022-10-21T01:14:52.761Z,13.1
2022-10-21T01:17:52.825Z,13.1
2022-10-21T01:20:52.656Z,13.1
2022-10-21T01:23:52.763Z,13.1
2022-10-21T01:26:52.673Z,13.1
2022-10-21T01:29:52.661Z,13.1
2022-10-21T01:32:52.656Z,13.1
2022-10-21T01:35:52.650Z,13.1
2022-10-21T01:38:52.672Z,13.1
2022-10-21T01:41:52.661Z,13.1
2022-10-21T01:44:52.655Z,13.1
2022-10-21T01:47:52.655Z,13.1
2022-10-21T01:50:52.657Z,13.1
2022-10-21T01:53:52.663Z,13.1
2022-10-21T01:56:52.661Z,13.1
2022-10-21T01:59:52.664Z,13.1
2022-10-21T02:02:52.656Z,13.1
2022-10-21T02:05:52.657Z,13.1
2022-10-21T02:08:52.733Z,13.1
2022-10-21T02:11:52.655Z,13.1
2022-10-21T02:14:52.660Z,13.1
2022-10-21T02:17:52.657Z,13.1
2022-10-21T02:20:52.657Z,13.1
2022-10-21T02:23:52.656Z,13.1
2022-10-21T02:26:52.665Z,13.1
2022-10-21T02:29:52.663Z,13.1
2022-10-21T02:32:52.660Z,13
2022-10-21T02:35:52.659Z,13.1
2022-10-21T02:38:52.663Z,13.1
2022-10-21T02:41:52.663Z,13.1
2022-10-21T02:44:52.662Z,13.1
2022-10-21T02:47:52.670Z,13.1
2022-10-21T02:50:52.666Z,13.1
2022-10-21T02:53:52.667Z,13.1
2022-10-21T02:56:52.675Z,13.1
2022-10-21T02:59:52.669Z,13.1
2022-10-21T03:02:52.662Z,13.1
2022-10-21T03:05:52.680Z,13.2
2022-10-21T03:08:52.746Z,13.2
2022-10-21T03:11:52.670Z,13.2
2022-10-21T03:14:52.682Z,13.2
2022-10-21T03:17:52.692Z,13.2
2022-10-21T03:20:52.675Z,13.2
2022-10-21T03:23:52.671Z,13.2
2022-10-21T03:26:52.676Z,13.2
2022-10-21T03:29:52.679Z,13.2
2022-10-21T03:32:52.679Z,13.2
2022-10-21T03:35:52.676Z,13.2
2022-10-21T03:38:52.696Z,13.2
2022-10-21T03:41:52.690Z,13.3
2022-10-21T03:44:52.697Z,13.3
2022-10-21T03:47:52.694Z,13.3
2022-10-21T03:50:52.693Z,13.3
2022-10-21T03:53:52.688Z,13.3
2022-10-21T03:56:52.690Z,13.3
2022-10-21T04:02:52.695Z,13.3
2022-10-21T04:05:52.691Z,13.3
2022-10-21T04:08:52.749Z,13.3
2022-10-21T04:11:52.701Z,13.3
2022-10-21T04:14:52.690Z,13.3
2022-10-21T04:17:52.706Z,13.3
2022-10-21T04:20:52.698Z,13.3
2022-10-21T04:23:52.688Z,13.4
2022-10-21T04:26:52.689Z,13.4
2022-10-21T04:29:52.694Z,13.4
2022-10-21T04:32:52.686Z,13.4
2022-10-21T04:38:52.689Z,13.4
2022-10-21T04:41:52.697Z,13.4
2022-10-21T04:44:52.697Z,13.4
2022-10-21T04:47:52.691Z,13.4
2022-10-21T04:50:52.697Z,13.4
2022-10-21T04:56:52.690Z,13.5
2022-10-21T04:59:52.692Z,13.5
2022-10-21T05:02:52.689Z,13.5
2022-10-21T05:05:52.705Z,13.5
2022-10-21T05:08:52.734Z,13.5
2022-10-21T05:11:52.707Z,13.5
2022-10-21T05:14:52.714Z,13.5
2022-10-21T05:17:52.699Z,13.5
2022-10-21T05:20:52.701Z,13.5
2022-10-21T05:23:52.785Z,13.5
2022-10-21T05:26:52.706Z,13.5
2022-10-21T05:29:52.707Z,13.5
2022-10-21T05:32:52.711Z,13.5
2022-10-21T05:35:52.703Z,13.5
2022-10-21T05:38:52.709Z,13.5
2022-10-21T05:41:52.706Z,13.5
2022-10-21T05:44:52.705Z,13.5
2022-10-21T05:47:52.721Z,13.5
2022-10-21T05:50:52.711Z,13.5
2022-10-21T05:53:52.719Z,13.5
2022-10-21T05:56:52.716Z,13.5
2022-10-21T06:02:52.701Z,13.5
2022-10-21T06:05:52.703Z,13.5
2022-10-21T06:08:52.751Z,13.5
2022-10-21T06:11:52.719Z,13.5
2022-10-21T06:14:52.703Z,13.5
2022-10-21T06:17:52.707Z,13.5
2022-10-21T06:20:52.706Z,13.5
2022-10-21T06:23:52.708Z,13.5
2022-10-21T06:26:52.710Z,13.5
2022-10-21T06:29:52.708Z,13.5
2022-10-21T06:32:52.707Z,13.5
2022-10-21T06:35:52.715Z,13.5
2022-10-21T06:38:52.703Z,13.5
2022-10-21T06:41:52.720Z,13.5
2022-10-21T06:44:53.500Z,13.5
2022-10-21T06:47:52.720Z,13.5
2022-10-21T06:50:52.710Z,13.5
2022-10-21T06:53:52.706Z,13.5
2022-10-21T06:56:52.709Z,13.5
2022-10-21T06:59:52.726Z,13.5
2022-10-21T07:02:52.715Z,13.5
2022-10-21T07:05:52.713Z,13.5
2022-10-21T07:08:57.711Z,13.5
2022-10-21T07:11:52.716Z,13.5
2022-10-21T07:14:52.706Z,13.5
2022-10-21T07:17:52.707Z,13.5
2022-10-21T07:20:52.714Z,13.5
2022-10-21T07:23:52.716Z,13.5
2022-10-21T07:26:52.714Z,13.5
2022-10-21T07:29:52.718Z,13.5
2022-10-21T07:32:52.715Z,13.5
2022-10-21T07:35:52.775Z,13.5
2022-10-21T07:38:52.725Z,13.5
2022-10-21T07:41:52.726Z,13.5
2022-10-21T07:44:52.729Z,13.5
2022-10-21T07:47:52.722Z,13.5
2022-10-21T07:50:52.725Z,13.5
2022-10-21T07:53:52.722Z,13.5
2022-10-21T07:56:52.738Z,13.5
2022-10-21T07:59:52.727Z,13.5
2022-10-21T08:05:52.726Z,13.5
2022-10-21T08:08:52.789Z,13.5
2022-10-21T08:11:52.726Z,13.5
2022-10-21T08:14:52.719Z,13.6
2022-10-21T08:17:52.720Z,13.6
2022-10-21T08:20:52.738Z,13.6
2022-10-21T08:23:52.721Z,13.6
2022-10-21T08:26:52.722Z,13.6
2022-10-21T08:29:52.745Z,13.6
2022-10-21T08:32:52.719Z,13.6
2022-10-21T08:35:52.718Z,13.7
2022-10-21T08:38:52.720Z,13.7
2022-10-21T08:41:52.730Z,13.7
2022-10-21T08:44:52.729Z,13.7
2022-10-21T08:47:52.727Z,13.7
2022-10-21T08:50:52.724Z,13.7
2022-10-21T08:53:52.720Z,13.7
2022-10-21T08:56:52.729Z,13.7
2022-10-21T08:59:52.728Z,13.8
2022-10-21T09:02:52.823Z,13.8
2022-10-21T09:05:52.727Z,13.8
2022-10-21T09:08:53.878Z,13.8
2022-10-21T09:14:52.732Z,13.9
2022-10-21T09:17:52.737Z,13.9
2022-10-21T09:20:55.030Z,13.9
2022-10-21T09:23:52.736Z,13.9
2022-10-21T09:26:52.737Z,13.9
2022-10-21T09:29:52.729Z,14
2022-10-21T09:32:52.731Z,14
2022-10-21T09:35:52.749Z,14
2022-10-21T09:38:52.738Z,14
2022-10-21T09:41:54.210Z,14
2022-10-21T09:44:52.738Z,14
2022-10-21T09:47:52.748Z,14.1
2022-10-21T09:50:52.757Z,14.1
2022-10-21T09:53:54.247Z,14.1
2022-10-21T09:56:52.749Z,14.1
2022-10-21T09:59:52.745Z,14.2
2022-10-21T10:02:52.738Z,14.2
2022-10-21T10:05:52.741Z,14.2
2022-10-21T10:08:52.847Z,14.2
2022-10-21T10:11:52.736Z,14.2
2022-10-21T10:14:52.742Z,14.3
2022-10-21T10:17:52.744Z,14.3
2022-10-21T10:20:52.877Z,14.3
2022-10-21T10:23:52.747Z,14.3
2022-10-21T10:26:52.747Z,14.4
2022-10-21T10:29:52.756Z,14.4
2022-10-21T10:32:52.751Z,14.4
2022-10-21T10:35:52.747Z,14.5
2022-10-21T10:38:52.748Z,14.5
2022-10-21T10:41:52.744Z,14.5
2022-10-21T10:44:52.747Z,14.5
2022-10-21T10:47:52.747Z,14.5
2022-10-21T10:50:52.765Z,14.6
2022-10-21T10:53:52.745Z,14.6
2022-10-21T10:56:52.747Z,14.6
2022-10-21T10:59:52.747Z,14.6
2022-10-21T11:02:52.752Z,14.6
2022-10-21T11:05:52.760Z,14.6
2022-10-21T11:08:52.825Z,14.6
2022-10-21T11:11:52.755Z,14.7
2022-10-21T11:14:52.762Z,14.7
2022-10-21T11:17:52.760Z,14.7
2022-10-21T11:20:52.798Z,14.7
2022-10-21T11:23:54.279Z,14.7
2022-10-21T11:26:52.780Z,14.7
2022-10-21T11:29:52.769Z,14.7
2022-10-21T11:32:52.765Z,14.7
2022-10-21T11:35:56.809Z,14.7
2022-10-21T11:38:52.766Z,14.7
2022-10-21T11:41:52.768Z,14.8
2022-10-21T11:44:52.771Z,14.8
2022-10-21T11:47:52.761Z,14.8
2022-10-21T11:50:52.770Z,14.8
2022-10-21T11:53:52.762Z,14.9
2022-10-21T11:56:52.782Z,14.9
2022-10-21T11:59:54.205Z,14.9
2022-10-21T12:02:52.820Z,14.9
2022-10-21T12:05:52.778Z,14.9
2022-10-21T12:08:52.768Z,14.9
2022-10-21T12:11:52.772Z,15
2022-10-21T12:14:52.776Z,15
2022-10-21T12:17:52.766Z,15
2022-10-21T12:20:52.773Z,15
2022-10-21T12:23:52.768Z,15.1
2022-10-21T12:26:52.785Z,15.2
2022-10-21T12:29:52.774Z,15.2
2022-10-21T12:32:52.781Z,15.2
2022-10-21T12:35:52.780Z,15.2
2022-10-21T12:38:52.775Z,15.3
2022-10-21T12:41:52.772Z,15.3
2022-10-21T12:44:52.777Z,15.3
2022-10-21T12:47:52.773Z,15.3
2022-10-21T12:50:52.776Z,15.3
2022-10-21T12:53:52.786Z,15.3
2022-10-21T12:59:52.772Z,15.4
2022-10-21T13:02:52.776Z,15.4
2022-10-21T13:05:52.781Z,15.4
2022-10-21T13:08:52.880Z,15.5
2022-10-21T13:11:52.811Z,15.5
2022-10-21T13:17:52.779Z,15.6
2022-10-21T13:20:52.787Z,15.6
2022-10-21T13:23:52.801Z,15.6
2022-10-21T13:26:52.780Z,15.6
2022-10-21T13:29:52.803Z,15.7
2022-10-21T13:32:52.842Z,15.7
2022-10-21T13:35:52.790Z,15.7
2022-10-21T13:38:52.784Z,15.8
2022-10-21T13:41:52.798Z,15.8
2022-10-21T13:44:52.788Z,15.8
2022-10-21T13:47:52.788Z,15.8
2022-10-21T13:50:52.802Z,15.8
2022-10-21T13:53:52.793Z,15.8
2022-10-21T13:56:52.792Z,15.8
2022-10-21T13:59:52.792Z,15.8
2022-10-21T14:02:52.786Z,15.8
2022-10-21T14:05:52.802Z,15.8
2022-10-21T14:08:52.837Z,15.8
2022-10-21T14:11:52.802Z,15.8
2022-10-21T14:14:52.792Z,15.8
2022-10-21T14:17:52.787Z,15.8
2022-10-21T14:20:52.791Z,15.8
2022-10-21T14:23:52.790Z,15.8
2022-10-21T14:26:52.796Z,15.8
2022-10-21T14:29:52.790Z,15.8
2022-10-21T14:32:52.796Z,15.8
2022-10-21T14:35:53.156Z,15.8
2022-10-21T14:38:52.794Z,15.8
2022-10-21T14:41:52.795Z,15.8
2022-10-21T14:44:52.792Z,15.8
2022-10-21T14:47:52.787Z,15.8
2022-10-21T14:50:52.798Z,15.8
2022-10-21T14:53:52.793Z,15.8
2022-10-21T14:56:52.788Z,15.8
2022-10-21T14:59:52.787Z,15.8
2022-10-21T15:02:52.842Z,15.8
2022-10-21T15:05:52.803Z,15.8
2022-10-21T15:08:52.863Z,15.8
2022-10-21T15:11:52.795Z,15.8
2022-10-21T15:14:52.792Z,15.8
2022-10-21T15:17:52.809Z,15.8
2022-10-21T15:20:52.799Z,15.8
2022-10-21T15:23:52.800Z,15.8
2022-10-21T15:26:52.797Z,15.8
2022-10-21T15:29:52.797Z,15.8
2022-10-21T15:32:52.800Z,15.8
2022-10-21T15:35:52.798Z,15.8
2022-10-21T15:38:52.801Z,15.8
2022-10-21T15:41:52.797Z,15.8
2022-10-21T15:44:52.797Z,15.8
2022-10-21T15:47:52.800Z,15.7
2022-10-21T15:50:52.803Z,15.7
2022-10-21T15:53:52.805Z,15.7
2022-10-21T15:56:52.808Z,15.7
2022-10-21T15:59:52.809Z,15.7
2022-10-21T16:02:52.809Z,15.7
2022-10-21T16:05:52.807Z,15.7
2022-10-21T16:08:52.860Z,15.6
2022-10-21T16:11:59.192Z,15.6
2022-10-21T16:14:52.809Z,15.6
2022-10-21T16:17:52.812Z,15.6
2022-10-21T16:23:52.808Z,15.6
2022-10-21T16:26:52.809Z,15.6
2022-10-21T16:29:52.821Z,15.6
2022-10-21T16:32:52.814Z,15.6
2022-10-21T16:35:52.819Z,15.5
2022-10-21T16:38:52.811Z,15.5
2022-10-21T16:41:52.824Z,15.5
2022-10-21T16:44:52.813Z,15.5
2022-10-21T16:47:52.911Z,15.5
2022-10-21T16:50:52.820Z,15.5
2022-10-21T16:53:52.813Z,15.5
2022-10-21T16:56:54.620Z,15.5
2022-10-21T16:59:52.896Z,15.5
2022-10-21T17:02:52.820Z,15.5
2022-10-21T17:05:52.826Z,15.5
2022-10-21T17:08:52.884Z,15.5
2022-10-21T17:11:52.813Z,15.5
2022-10-21T17:14:52.829Z,15.5
2022-10-21T17:17:52.814Z,15.5
2022-10-21T17:20:52.832Z,15.5
2022-10-21T17:23:52.825Z,15.5
2022-10-21T17:26:52.824Z,15.5
2022-10-21T17:29:52.831Z,15.5
2022-10-21T17:32:52.840Z,15.5
2022-10-21T17:35:52.831Z,15.5
2022-10-21T17:38:52.836Z,15.5
2022-10-21T17:41:52.846Z,15.5
2022-10-21T17:44:52.831Z,15.5
2022-10-21T17:47:52.836Z,15.5
2022-10-21T17:50:52.844Z,15.5
2022-10-21T17:53:52.835Z,15.5
2022-10-21T17:56:52.835Z,15.5
2022-10-21T17:59:52.889Z,15.5
2022-10-21T18:02:52.833Z,15.5
2022-10-21T18:05:52.844Z,15.5
2022-10-21T18:08:52.889Z,15.5
2022-10-21T18:11:52.833Z,15.5
2022-10-21T18:14:52.843Z,15.5
2022-10-21T18:17:52.843Z,15.5
2022-10-21T18:20:52.863Z,15.4
2022-10-21T18:23:52.839Z,15.4
2022-10-21T18:26:52.837Z,15.4
2022-10-21T18:29:52.839Z,15.4
2022-10-21T18:32:52.849Z,15.4
2022-10-21T18:35:52.850Z,15.4
2022-10-21T18:38:52.848Z,15.4
2022-10-21T18:41:52.842Z,15.4
2022-10-21T18:44:52.844Z,15.4
2022-10-21T18:47:52.839Z,15.4
2022-10-21T18:50:52.849Z,15.4
2022-10-21T18:53:53.248Z,15.3
2022-10-21T18:56:52.856Z,15.3
2022-10-21T18:59:52.845Z,15.3
2022-10-21T19:02:52.847Z,15.3
2022-10-21T19:05:52.853Z,15.3
2022-10-21T19:08:52.912Z,15.2
2022-10-21T19:11:52.844Z,15.2
2022-10-21T19:14:52.856Z,15.2
2022-10-21T19:17:52.851Z,15.2
2022-10-21T19:20:52.852Z,15.1
2022-10-21T19:23:52.843Z,15.1
2022-10-21T19:26:52.850Z,15.1
2022-10-21T19:29:52.858Z,15.1
2022-10-21T19:32:52.868Z,15.1
2022-10-21T19:35:52.865Z,15.1
2022-10-21T19:38:52.857Z,15.1
2022-10-21T19:41:52.862Z,15.1
2022-10-21T19:44:52.888Z,15
2022-10-21T19:47:52.857Z,15
2022-10-21T19:53:52.873Z,15
2022-10-21T19:56:52.870Z,15
2022-10-21T20:02:52.860Z,15
2022-10-21T20:05:52.873Z,15
2022-10-21T20:08:52.869Z,15
2022-10-21T20:11:52.854Z,15
2022-10-21T20:14:52.856Z,15
2022-10-21T20:17:52.860Z,15
2022-10-21T20:20:52.862Z,15
2022-10-21T20:23:52.856Z,15
2022-10-21T20:26:52.867Z,15
2022-10-21T20:29:52.880Z,14.9
2022-10-21T20:32:52.864Z,14.9
2022-10-21T20:35:52.870Z,14.9
2022-10-21T20:38:52.869Z,14.9
2022-10-21T20:41:52.868Z,14.9
2022-10-21T20:44:52.866Z,14.9
2022-10-21T20:47:52.866Z,14.9
2022-10-21T20:50:52.864Z,14.9
2022-10-21T20:53:52.883Z,14.9
2022-10-21T20:56:52.872Z,14.9
2022-10-21T20:59:52.884Z,14.9
2022-10-21T21:02:52.967Z,14.8
2022-10-21T21:05:52.876Z,14.8
2022-10-21T21:09:15.003Z,14.8
2022-10-21T21:11:52.961Z,14.8
2022-10-21T21:14:52.869Z,14.8
2022-10-21T21:17:52.871Z,14.8
2022-10-21T21:20:52.915Z,14.8
2022-10-21T21:23:52.872Z,14.8
2022-10-21T21:26:52.875Z,14.8
2022-10-21T21:29:52.911Z,14.8
2022-10-21T21:32:52.874Z,14.8
2022-10-21T21:35:52.877Z,14.8
2022-10-21T21:38:52.888Z,14.8
2022-10-21T21:41:52.868Z,14.7
2022-10-21T21:44:52.875Z,14.7
2022-10-21T21:47:52.873Z,14.7
2022-10-21T21:50:52.877Z,14.7
2022-10-21T21:53:52.877Z,14.7
2022-10-21T21:56:57.353Z,14.7
2022-10-21T21:59:52.869Z,14.7
2022-10-21T22:02:52.876Z,14.7
2022-10-21T22:05:52.883Z,14.7
2022-10-21T22:08:52.928Z,14.7
2022-10-21T22:11:52.880Z,14.6
2022-10-21T22:14:52.877Z,14.6
2022-10-21T22:17:53.407Z,14.6
2022-10-21T22:20:52.878Z,14.6
2022-10-21T22:23:52.890Z,14.6
2022-10-21T22:26:52.885Z,14.6
2022-10-21T22:29:52.876Z,14.6
2022-10-21T22:32:52.880Z,14.6
2022-10-21T22:35:52.885Z,14.6
2022-10-21T22:38:52.882Z,14.6
2022-10-21T22:41:52.880Z,14.6
2022-10-21T22:44:52.887Z,14.6
2022-10-21T22:47:52.885Z,14.6
2022-10-21T22:50:52.893Z,14.6
2022-10-21T22:53:53.699Z,14.6
2022-10-21T22:56:52.885Z,14.6
2022-10-21T22:59:53.406Z,14.6
2022-10-21T23:02:52.896Z,14.6
2022-10-21T23:05:52.890Z,14.6
2022-10-21T23:08:52.930Z,14.6
2022-10-21T23:11:52.887Z,14.6
2022-10-21T23:14:52.898Z,14.6
2022-10-21T23:17:52.887Z,14.6
2022-10-21T23:20:52.892Z,14.6
2022-10-21T23:23:52.893Z,14.6
2022-10-21T23:26:55.365Z,14.6
2022-10-21T23:29:52.895Z,14.6
2022-10-21T23:32:52.898Z,14.6
2022-10-21T23:35:52.891Z,14.6
2022-10-21T23:38:52.895Z,14.6
2022-10-21T23:41:52.895Z,14.6
2022-10-21T23:44:52.901Z,14.6
2022-10-21T23:47:52.899Z,14.6
2022-10-21T23:50:52.898Z,14.6
2022-10-21T23:53:52.895Z,14.6
2022-10-21T23:56:52.902Z,14.6
2022-10-21T23:59:52.903Z,14.6
